Date,TemperatureHighF,TemperatureAvgF,TemperatureLowF,DewpointHighF,DewpointAvgF,DewpointLowF,HumidityHigh,HumidityAvg,HumidityLow,PressureMaxIn,PressureMinIn,WindSpeedMaxMPH,WindSpeedAvgMPH,GustSpeedMaxMPH,PrecipitationSumIn
2019-1-1,58.6,52.5,46.4,56.9,48.8,43.7,94,85,73,30.17,29.98,15,3,8,0.01
2019-1-2,51.6,46.5,41.5,46.3,43.9,39.9,95,90,81,30.27,30.07,10,0,3,0.15
2019-1-3,52.3,48.8,45.2,49.2,45.9,43.8,96,94,88,30.09,30.00,14,1,7,0.50
2019-1-4,51.9,46.2,40.5,50.4,46.8,38.9,96,94,88,30.02,29.58,18,3,11,0.46
2019-1-5,49.9,44.0,38.3,38.8,36.4,34.3,94,78,61,30.13,29.66,34,9,15,0.01
2019-1-6,62.4,47.8,33.3,41.3,36.2,31.0,93,65,39,30.29,30.13,13,1,6,0.00
2019-1-7,58.4,52.6,46.8,43.3,39.6,36.0,78,66,55,30.31,30.13,14,4,8,0.00
2019-1-8,64.9,55.0,45.4,49.5,42.9,28.1,89,67,47,30.19,29.91,25,5,15,0.00
2019-1-9,45.3,36.5,28.0,30.8,21.6,17.8,68,54,41,30.09,29.96,33,12,14,0.00
2019-1-10,35.0,29.1,23.2,19.7,17.4,15.6,75,66,52,30.34,30.08,28,9,16,0.00
2019-1-11,50.3,35.8,21.4,23.8,17.7,3.2,81,57,16,30.43,30.31,10,2,5,0.00
2019-1-12,37.2,33.9,30.8,31.0,23.8,19.0,94,67,49,30.44,30.25,12,3,6,0.06
2019-1-13,39.9,36.2,32.4,38.6,34.2,30.9,96,95,94,30.25,30.13,9,0,5,0.39
2019-1-14,40.3,36.5,32.7,38.6,34.6,29.7,95,90,84,30.28,30.19,15,5,9,0.07
2019-1-15,40.0,33.3,26.7,31.9,28.1,24.7,93,86,72,30.34,30.24,16,4,8,0.00
2019-1-16,48.1,36.7,25.3,35.4,28.9,23.7,95,86,58,30.35,30.26,18,3,10,0.00
2019-1-17,39.9,34.8,29.8,35.6,32.1,27.9,95,91,77,30.34,30.16,9,2,5,0.10
2019-1-18,50.8,43.5,36.3,44.3,39.3,34.8,96,89,73,30.19,30.10,14,1,4,0.01
2019-1-19,51.7,47.3,42.9,50.2,44.6,40.3,95,93,89,30.12,29.49,15,4,10,0.64
2019-1-20,50.4,33.2,15.9,48.5,24.0,10.2,95,85,72,30.23,29.47,28,11,14,0.01
2019-1-21,28.4,18.5,8.6,12.2,6.5,0.9,79,61,39,30.60,30.23,23,5,13,0.00
2019-1-22,40.9,30.6,20.4,23.1,11.3,3.1,64,47,21,30.70,30.55,17,4,8,0.00
2019-1-23,53.5,42.1,30.7,52.1,40.0,18.8,95,92,58,30.55,29.77,17,4,9,0.60
2019-1-24,52.9,39.2,25.6,51.4,34.6,21.3,95,88,78,30.07,29.56,23,9,13,0.21
2019-1-25,36.8,31.0,25.5,23.2,19.6,14.4,86,68,42,30.31,30.07,21,6,14,0.00
2019-1-26,41.3,30.2,19.2,24.7,18.7,12.2,91,64,39,30.34,30.23,12,2,7,0.00
2019-1-27,44.2,34.8,25.5,30.6,25.9,20.3,87,71,54,30.25,30.05,6,1,4,0.00
2019-1-28,50.7,39.4,28.1,33.3,30.1,25.7,93,72,46,30.08,29.91,16,3,8,0.00
2019-1-29,44.0,31.7,19.4,36.3,26.6,11.2,94,81,63,30.11,29.84,22,6,11,0.02
2019-1-30,32.6,25.7,18.9,17.6,9.1,1.7,75,54,30,30.33,30.09,21,6,10,0.00
2019-1-31,39.5,27.2,15.0,21.9,12.5,1.4,72,55,45,30.49,30.31,14,2,6,0.00
2019-2-1,53.6,40.8,28.0,30.4,25.1,19.7,77,57,39,30.42,30.32,12,1,6,0.00
2019-2-2,61.7,48.5,35.2,39.4,33.0,27.0,76,58,40,30.37,30.19,9,1,4,0.00
2019-2-3,60.7,48.9,37.3,41.2,37.4,32.3,86,68,47,30.20,30.06,12,1,7,0.00
2019-2-4,65.0,51.5,38.1,46.1,40.8,35.6,93,71,37,30.13,30.01,7,1,5,0.00
2019-2-5,68.9,58.5,48.0,53.6,48.4,43.4,86,73,52,30.12,30.03,10,1,6,0.00
2019-2-6,69.0,59.0,49.0,59.7,53.6,45.3,91,83,71,30.10,29.99,14,2,7,0.00
2019-2-7,74.0,66.7,59.5,60.7,58.1,55.5,93,79,57,30.04,29.95,17,5,9,0.00
2019-2-8,63.2,47.6,32.1,55.8,32.5,17.3,87,63,34,30.50,29.94,27,10,15,0.00
2019-2-9,52.7,39.9,27.2,21.2,18.6,13.1,75,51,22,30.75,30.50,15,3,8,0.00
2019-2-10,41.9,37.2,32.6,40.3,25.4,14.2,94,67,43,30.67,30.33,12,2,5,0.04
2019-2-11,63.9,51.8,39.7,55.2,46.8,38.1,96,87,64,30.34,30.02,12,2,6,0.06
2019-2-12,51.6,45.8,40.1,49.7,45.2,30.6,95,92,63,30.04,29.79,24,4,13,0.54
2019-2-13,48.5,39.9,31.5,30.5,19.0,12.7,74,48,25,30.20,29.93,25,8,12,0.00
2019-2-14,57.1,43.2,29.2,28.2,22.3,17.7,74,45,24,30.22,29.97,14,2,7,0.00
2019-2-15,59.2,51.8,44.4,47.8,40.1,26.9,94,68,44,29.98,29.78,16,3,9,0.07
2019-2-16,55.3,49.0,42.8,47.8,44.6,40.5,95,90,68,29.92,29.65,12,3,7,0.32
2019-2-17,45.0,40.6,36.2,42.1,38.0,32.3,95,91,84,30.02,29.86,15,3,7,0.74
2019-2-18,50.4,41.7,33.1,44.5,35.3,27.2,96,78,43,30.43,29.92,20,7,10,0.11
2019-2-19,38.8,34.2,29.8,33.4,29.7,26.2,94,85,68,30.57,30.40,28,3,10,0.85
2019-2-20,48.5,40.2,31.9,47.3,37.5,30.2,96,95,93,30.43,30.08,18,4,8,0.36
2019-2-21,63.4,53.9,44.4,58.8,49.8,43.1,96,94,82,30.21,30.05,12,1,6,0.36
2019-2-22,49.1,47.3,45.6,47.9,46.0,43.7,96,95,93,30.31,30.16,14,2,8,0.41
2019-2-23,49.7,45.0,40.3,48.5,41.6,38.9,96,95,93,30.29,29.99,15,3,9,0.20
2019-2-24,61.2,50.1,39.1,51.0,36.9,11.2,95,63,30,30.13,29.80,26,8,14,0.09
2019-2-25,50.9,42.1,33.2,16.9,13.8,6.0,48,34,21,30.46,30.13,27,8,14,0.00
2019-2-26,63.1,48.9,34.8,41.7,28.4,16.3,66,49,19,30.47,30.27,12,2,7,0.00
2019-2-27,66.1,56.8,47.5,51.0,46.3,41.0,92,72,56,30.27,29.99,12,1,5,0.00
2019-2-28,57.6,53.1,48.6,50.8,46.9,43.0,94,81,63,30.02,29.96,12,2,7,0.19
2019-3-1,54.8,51.8,48.8,53.2,51.0,47.4,95,95,94,30.02,29.91,9,1,7,0.46
2019-3-2,63.9,52.5,41.0,47.1,41.9,38.6,95,81,46,30.12,29.98,14,3,7,0.00
2019-3-3,52.5,44.5,36.6,47.8,43.9,35.0,95,90,82,30.06,29.65,20,4,10,0.50
2019-3-4,36.6,30.5,24.6,34.9,26.3,19.9,94,87,75,30.17,29.81,22,7,12,0.01
2019-3-5,37.7,30.0,22.4,20.1,16.1,9.5,83,63,38,30.25,30.12,21,7,10,0.00
2019-3-6,37.2,27.1,17.2,12.5,9.0,1.9,75,51,27,30.43,30.24,23,8,14,0.00
2019-3-7,50.6,37.0,23.6,21.7,15.6,9.3,72,43,26,30.48,30.29,13,3,7,0.00
2019-3-8,44.8,41.3,37.9,42.6,32.9,20.4,95,74,41,30.29,30.09,12,2,6,0.30
2019-3-9,49.8,45.8,41.9,47.8,43.4,40.6,96,94,88,30.17,30.03,16,3,7,0.10
2019-3-10,70.4,57.8,45.3,54.6,45.9,38.1,96,71,34,30.19,30.06,14,3,8,0.16
2019-3-11,56.3,50.8,45.3,45.5,39.1,31.5,89,67,41,30.28,30.17,20,3,10,0.10
2019-3-12,59.6,48.8,38.0,41.9,30.2,22.0,92,55,26,30.36,30.26,13,3,8,0.00
2019-3-13,61.4,53.2,45.1,37.6,33.7,29.0,62,49,36,30.30,30.17,14,4,8,0.00
2019-3-14,60.3,55.7,51.0,56.5,50.0,33.2,94,84,49,30.22,30.01,14,4,8,0.11
2019-3-15,66.6,54.3,42.1,58.5,50.1,33.4,95,77,36,30.10,29.89,24,6,12,0.27
2019-3-16,47.9,40.5,33.1,33.4,24.7,19.3,71,55,33,30.29,30.09,20,8,12,0.00
2019-3-17,56.4,44.5,32.7,23.7,20.7,16.2,60,42,24,30.35,30.16,16,3,10,0.00
2019-3-18,48.6,42.2,35.9,28.4,21.5,14.0,69,47,28,30.37,30.20,18,5,11,0.00
2019-3-19,54.1,41.8,29.5,22.5,18.6,13.7,65,44,23,30.48,30.32,12,2,7,0.00
2019-3-20,60.4,45.0,29.8,27.9,22.7,19.1,76,45,22,30.37,30.09,10,2,7,0.00
2019-3-21,52.6,44.5,36.4,39.7,32.9,25.4,94,70,47,30.10,29.83,21,3,11,0.17
2019-3-22,56.9,45.8,34.8,34.3,30.8,26.8,92,63,34,30.08,29.92,30,11,14,0.11
2019-3-23,61.5,47.4,33.5,31.4,20.3,10.9,66,40,15,30.33,30.08,20,5,10,0.00
2019-3-24,68.3,52.2,36.2,37.5,30.3,15.1,73,43,27,30.33,30.12,14,2,9,0.00
2019-3-25,60.1,53.3,46.6,51.1,42.2,34.6,94,69,44,30.14,29.89,12,2,7,0.24
2019-3-26,55.5,47.8,40.5,46.7,43.4,38.1,95,89,67,30.28,29.96,12,4,8,0.04
2019-3-27,60.0,47.2,34.4,38.5,29.2,18.3,93,56,31,30.46,30.28,12,3,6,0.00
2019-3-28,66.7,50.6,34.5,35.6,30.2,24.8,76,49,27,30.45,30.24,15,2,7,0.00
2019-3-29,70.8,56.2,41.8,42.7,35.6,31.0,72,48,27,30.28,30.05,12,2,7,0.00
2019-3-30,71.5,61.4,51.5,47.9,44.4,39.8,70,56,41,30.09,29.81,16,4,10,0.00
2019-3-31,61.4,48.2,35.1,51.9,35.8,19.9,93,73,50,30.20,29.76,26,9,13,0.33
2019-4-1,56.2,41.5,26.9,23.7,20.4,13.3,76,50,20,30.38,30.20,17,4,8,0.00
2019-4-2,52.2,43.9,35.8,35.1,25.2,17.5,73,50,36,30.29,30.10,12,3,8,0.00
2019-4-3,67.7,51.1,34.6,35.2,32.2,29.9,86,55,27,30.42,30.23,13,2,8,0.00
2019-4-4,70.0,57.7,45.5,41.7,35.8,31.2,65,45,26,30.38,30.17,16,3,9,0.00
2019-4-5,63.7,56.1,48.4,53.5,48.4,37.6,94,81,47,30.17,30.02,16,3,8,0.20
2019-4-6,74.7,62.7,50.9,55.6,51.0,47.4,94,75,40,30.21,30.07,14,2,6,0.00
2019-4-7,70.8,63.7,56.6,61.3,57.3,54.0,92,82,68,30.18,30.06,12,3,10,0.01
2019-4-8,70.3,64.1,58.0,63.2,59.4,55.3,95,89,66,30.08,29.81,16,2,9,1.02
2019-4-9,70.8,64.1,57.4,61.2,56.1,49.3,96,81,49,29.82,29.70,12,2,6,0.08
2019-4-10,77.9,65.6,53.2,52.5,44.3,32.8,88,50,26,29.90,29.77,12,3,6,0.00
2019-4-11,73.8,65.2,56.5,58.1,51.8,44.9,85,63,48,29.98,29.86,14,4,7,0.00
2019-4-12,74.0,66.8,59.6,61.9,58.7,55.4,93,78,60,30.01,29.91,13,5,8,0.03
2019-4-13,75.3,67.3,59.3,63.6,58.9,55.4,92,82,62,30.05,29.88,12,3,6,0.06
2019-4-14,66.6,60.2,54.0,63.2,60.0,49.9,94,90,81,29.90,29.48,20,6,20,0.93
2019-4-15,54.0,46.7,39.4,49.6,36.1,30.8,88,67,44,30.19,29.59,25,10,12,0.00
2019-4-16,76.2,56.5,37.0,44.6,37.3,26.2,86,54,25,30.31,30.12,12,2,7,0.00
2019-4-17,79.2,64.0,49.0,49.7,44.8,34.0,83,54,21,30.16,29.97,12,2,6,0.00
2019-4-18,73.7,66.0,58.3,57.6,54.0,48.4,82,66,52,30.01,29.73,16,4,8,0.00
2019-4-19,65.0,57.0,48.9,61.8,56.2,46.1,95,91,77,29.74,29.33,21,4,10,3.27
2019-4-20,48.9,44.2,39.6,46.1,39.5,36.4,93,87,69,29.91,29.45,13,4,7,0.16
2019-4-21,56.3,47.7,39.3,45.3,40.2,36.9,93,81,63,30.22,29.91,16,5,10,0.00
2019-4-22,74.9,56.8,38.7,47.6,42.7,36.7,95,63,34,30.27,30.14,14,2,8,0.00
2019-4-23,81.5,65.6,49.7,54.4,47.1,43.6,86,54,30,30.16,29.94,15,2,9,0.00
2019-4-24,80.9,70.8,60.8,53.8,48.5,44.7,69,48,34,29.98,29.82,12,3,6,0.00
2019-4-25,71.6,63.4,55.3,57.2,52.3,45.5,89,69,49,29.91,29.76,12,2,6,0.01
2019-4-26,62.9,58.6,54.2,57.4,48.2,35.9,93,72,45,29.91,29.60,21,6,12,0.09
2019-4-27,75.7,60.6,45.6,45.5,37.7,30.7,67,48,25,30.03,29.84,21,4,10,0.00
2019-4-28,75.2,67.8,60.3,57.0,46.8,34.6,67,49,36,30.07,29.88,14,3,10,0.00
2019-4-29,76.1,65.4,54.7,59.4,53.4,47.6,83,71,54,30.22,30.07,12,3,6,0.00
2019-4-30,83.6,69.8,56.2,63.1,57.7,52.3,93,70,36,30.25,30.13,9,2,4,0.00
2019-5-1,78.6,70.6,62.6,63.7,59.3,52.7,88,71,44,30.22,30.13,12,3,6,0.00
2019-5-2,78.5,70.5,62.5,65.3,60.1,55.6,91,74,53,30.18,30.04,14,3,6,0.01
2019-5-3,78.5,68.4,58.4,65.5,59.4,53.9,90,78,53,30.07,29.90,12,3,5,0.10
2019-5-4,73.5,66.7,60.0,65.9,60.7,58.3,96,92,63,29.92,29.75,6,0,4,1.03
2019-5-5,68.6,63.3,58.0,62.1,58.7,55.4,96,89,71,29.87,29.66,17,4,10,0.56
2019-5-6,73.0,63.5,54.1,56.7,53.0,47.4,95,73,44,30.09,29.87,10,2,6,0.00
2019-5-7,75.3,64.8,54.4,62.5,56.8,48.6,93,77,55,30.16,30.06,12,1,5,0.00
2019-5-8,79.0,68.5,58.1,65.6,60.1,56.2,94,78,55,30.12,29.99,12,2,6,0.00
2019-5-9,75.2,68.5,61.8,61.4,59.0,55.6,88,76,53,30.06,29.95,13,2,5,0.00
2019-5-10,79.4,70.4,61.4,66.1,61.9,58.5,93,83,60,30.05,29.97,9,1,6,0.03
2019-5-11,65.7,63.8,62.0,64.2,61.8,60.0,95,95,93,30.01,29.80,7,0,2,1.25
2019-5-12,70.6,65.1,59.6,63.8,61.0,57.8,96,91,75,29.81,29.65,18,2,9,0.14
2019-5-13,62.7,56.2,49.9,57.8,49.3,42.2,92,76,54,29.94,29.71,16,7,9,0.03
2019-5-14,61.5,53.1,44.7,45.9,42.9,40.9,89,71,51,30.08,29.92,16,5,8,0.00
2019-5-15,66.1,54.6,43.2,51.3,46.3,41.1,94,75,52,30.11,30.00,8,1,4,0.00
2019-5-16,75.9,62.2,48.6,59.5,52.3,46.7,94,73,46,30.08,29.92,13,2,7,0.00
2019-5-17,80.1,68.0,55.9,67.3,58.6,51.5,94,74,47,30.01,29.91,13,2,7,0.06
2019-5-18,83.4,71.6,59.8,65.4,61.0,57.3,93,71,48,30.04,29.91,8,2,4,0.00
2019-5-19,82.3,72.2,62.0,65.9,61.9,57.4,92,70,46,29.99,29.91,14,4,7,0.00
2019-5-20,78.1,70.3,62.6,63.7,60.3,56.0,91,71,49,29.98,29.89,13,3,7,0.00
2019-5-21,84.6,69.8,55.1,62.0,56.6,50.0,91,66,32,30.00,29.90,7,1,4,0.00
2019-6-20,76.7,70.2,63.7,67.6,64.2,61.3,94,82,62,29.84,29.70,12,3,6,0.04
2019-6-21,77.2,70.4,63.6,62.4,59.9,57.5,87,72,54,30.01,29.83,16,6,9,0.00
2019-6-22,77.7,69.8,62.0,70.3,63.8,60.4,96,90,73,30.12,29.91,12,2,7,1.03
2019-6-23,81.6,72.3,63.1,71.2,66.3,61.6,96,83,61,30.06,29.94,5,1,3,0.00
2019-6-24,85.9,75.7,65.5,71.7,67.0,64.0,96,84,59,29.96,29.78,13,2,8,0.19
2019-6-25,75.8,69.8,63.7,66.4,63.4,61.9,95,78,63,30.08,29.89,14,3,8,0.00
2019-6-26,79.9,70.3,60.8,67.0,63.5,59.3,96,79,57,30.18,30.08,7,1,4,0.00
2019-6-27,85.3,72.4,59.6,67.5,62.2,55.8,94,73,37,30.22,30.12,7,1,3,0.00
2019-6-28,83.7,74.4,65.2,71.1,65.3,61.0,93,77,54,30.21,30.10,5,1,2,0.00
2019-6-29,84.0,73.2,62.4,68.9,63.4,60.4,94,74,48,30.18,30.04,7,1,2,0.00
2019-6-30,82.7,72.9,63.2,69.1,64.8,61.1,94,77,58,30.09,29.93,14,3,7,0.00
2019-7-1,83.3,74.4,65.5,69.3,65.4,62.1,95,76,50,30.02,29.94,12,2,6,0.00
2019-7-2,84.9,74.8,64.6,70.0,66.2,62.8,94,77,54,30.00,29.89,11,2,5,0.00
2019-7-3,85.6,75.1,64.7,71.2,66.6,62.6,94,81,54,30.02,29.86,12,1,9,1.90
2019-7-4,84.8,74.6,64.4,72.6,66.7,62.9,96,82,51,30.05,29.95,8,1,4,0.05
2019-7-5,83.9,75.1,66.3,72.8,68.4,64.8,95,84,63,30.10,30.01,6,1,3,0.00
2019-7-6,81.5,75.2,68.8,74.4,69.9,65.5,95,91,74,30.06,29.93,9,1,4,0.49
2019-7-7,86.9,77.6,68.3,73.6,69.0,66.2,96,83,54,29.97,29.81,8,1,3,0.01
2019-7-8,84.3,75.8,67.3,73.1,68.6,65.8,95,81,62,29.92,29.81,12,2,5,0.00
2019-7-9,81.3,75.4,69.6,73.2,69.5,66.8,94,86,73,30.03,29.90,9,3,4,0.00
2019-7-10,86.5,77.3,68.2,73.9,69.5,66.3,94,83,58,30.05,29.92,6,1,3,0.01
2019-7-11,84.7,76.4,68.1,73.4,69.5,65.9,95,91,63,29.96,29.83,17,1,8,1.12
2019-7-12,82.8,75.2,67.8,73.6,69.5,66.5,96,90,70,29.95,29.84,8,0,4,0.03
2019-7-13,80.3,74.6,69.0,73.1,69.9,67.0,96,90,75,30.11,29.93,10,1,5,0.01
2019-7-14,81.2,73.9,66.6,71.2,67.6,65.0,95,83,66,30.15,30.05,14,4,8,0.03
2019-7-15,85.4,75.8,66.2,71.7,67.1,63.8,95,86,58,30.13,30.05,13,1,7,0.53
2019-7-16,84.7,75.0,65.3,72.7,67.4,63.8,96,83,59,30.15,30.03,10,1,3,0.00
2019-7-17,82.3,74.3,66.6,73.4,69.2,64.8,95,88,63,30.08,29.96,5,0,3,0.19
2019-7-18,83.4,75.4,67.4,74.4,69.1,65.9,96,86,63,30.01,29.93,12,2,6,0.00
2019-7-19,71.8,69.9,68.2,68.5,67.4,66.5,95,93,90,30.01,29.97,4,0,1,0.00